Time;durP1;ratioP1;P1;durP2;ratioP2;P2;SDS_P1;SDS_P2;PMS_P1;PMS_P2;Temp;Humidity;BMP_temperature;BMP_pressure;BME280_temperature;BME280_humidity;BME280_pressure;Samples;Min_cycle;Max_cycle;Signal;HPM_P1;HPM_P2
2023/08/10 00:01:21;;;;;;;4.23;2.37;;;16.50;99.90;;;;;;4993537;28;20437;-49
2023/08/10 00:03:48;;;;;;;4.70;3.20;;;16.10;99.90;;;;;;4993712;28;20426;-50
2023/08/10 00:06:14;;;;;;;6.37;3.43;;;16.10;99.90;;;;;;4993586;28;20454;-50
2023/08/10 00:08:41;;;;;;;6.50;3.07;;;16.00;99.90;;;;;;4993422;28;20463;-49
2023/08/10 00:11:08;;;;;;;5.33;3.30;;;16.00;99.90;;;;;;4993412;28;20770;-49
2023/08/10 00:13:36;;;;;;;5.83;2.97;;;15.70;99.90;;;;;;4993281;28;20477;-50
2023/08/10 00:16:03;;;;;;;9.87;4.30;;;15.60;99.90;;;;;;4993411;28;20437;-49
2023/08/10 00:18:30;;;;;;;9.70;3.30;;;15.90;99.90;;;;;;4992560;28;20504;-50
2023/08/10 00:20:56;;;;;;;6.80;2.70;;;15.80;99.90;;;;;;4993266;28;20437;-50
2023/08/10 00:23:23;;;;;;;5.17;3.23;;;15.60;99.90;;;;;;4993356;28;20448;-50
2023/08/10 00:25:50;;;;;;;6.43;3.27;;;15.90;99.90;;;;;;4993230;28;20438;-51
2023/08/10 00:28:16;;;;;;;4.53;2.67;;;15.80;99.90;;;;;;4992743;28;20464;-51
2023/08/10 00:30:44;;;;;;;4.53;3.43;;;15.90;99.90;;;;;;4993095;28;20952;-51
2023/08/10 00:33:11;;;;;;;8.03;3.60;;;15.90;99.90;;;;;;4993074;28;20445;-51
2023/08/10 00:35:39;;;;;;;7.17;3.30;;;15.90;99.90;;;;;;4992993;28;20464;-51
2023/08/10 00:38:06;;;;;;;4.63;2.83;;;15.90;99.90;;;;;;5029963;23;20503;-44
2023/08/10 00:40:33;;;;;;;5.57;3.27;;;15.70;99.90;;;;;;5015512;28;20533;-44
2023/08/10 00:43:02;;;;;;;4.80;3.10;;;15.90;99.90;;;;;;5016256;28;20466;-44
2023/08/10 00:45:28;;;;;;;6.00;3.10;;;15.90;99.90;;;;;;5016168;28;20452;-44
2023/08/10 00:47:57;;;;;;;6.33;2.83;;;15.80;99.90;;;;;;5017483;28;20430;-45
2023/08/10 00:50:24;;;;;;;4.30;2.80;;;15.90;99.90;;;;;;5016190;28;20421;-45
2023/08/10 00:52:51;;;;;;;3.80;2.70;;;16.00;99.90;;;;;;5014953;28;20450;-44
2023/08/10 00:55:18;;;;;;;5.10;3.40;;;16.10;99.90;;;;;;5015762;28;20455;-44
2023/08/10 00:57:45;;;;;;;11.80;3.40;;;16.10;99.90;;;;;;5013990;28;20431;-44
2023/08/10 01:00:14;;;;;;;4.80;3.40;;;16.40;99.90;;;;;;5011263;28;20448;-44
2023/08/10 01:02:41;;;;;;;4.17;3.30;;;16.20;99.90;;;;;;5011063;28;20424;-44
2023/08/10 01:05:11;;;;;;;3.60;2.90;;;16.20;99.90;;;;;;5012230;28;20472;-44
2023/08/10 01:07:44;;;;;;;6.67;3.80;;;16.50;99.90;;;;;;5012667;28;20915;-44
2023/08/10 01:10:18;;;;;;;5.13;3.47;;;16.30;99.90;;;;;;5011160;28;20471;-45
2023/08/10 01:12:51;;;;;;;5.10;3.70;;;16.30;99.90;;;;;;5012705;28;20432;-44
2023/08/10 01:15:23;;;;;;;4.80;3.00;;;16.20;99.90;;;;;;5013720;28;20532;-45
2023/08/10 01:17:53;;;;;;;5.07;3.13;;;16.20;99.90;;;;;;5013070;28;20449;-45
2023/08/10 01:20:23;;;;;;;6.10;3.10;;;16.10;99.90;;;;;;5013769;28;20406;-45
2023/08/10 01:22:56;;;;;;;7.17;3.20;;;16.30;99.90;;;;;;5012334;28;20981;-44
2023/08/10 01:25:25;;;;;;;6.53;3.80;;;16.10;99.90;;;;;;5013521;28;20953;-45
2023/08/10 01:27:52;;;;;;;5.37;3.20;;;16.10;99.90;;;;;;5013315;28;20449;-45
2023/08/10 01:30:22;;;;;;;7.03;3.80;;;16.00;99.90;;;;;;5016102;28;20436;-43
2023/08/10 01:32:55;;;;;;;5.83;3.47;;;16.00;99.90;;;;;;5015012;28;20442;-44
2023/08/10 01:35:22;;;;;;;6.00;3.23;;;16.00;99.90;;;;;;5016258;28;20982;-43
2023/08/10 01:37:49;;;;;;;8.03;3.47;;;16.10;99.90;;;;;;5014096;28;20951;-46
2023/08/10 01:40:16;;;;;;;5.37;3.20;;;16.00;99.90;;;;;;5016197;28;20461;-44
2023/08/10 01:42:45;;;;;;;4.60;3.07;;;16.00;99.90;;;;;;5014299;28;20904;-44
2023/08/10 01:45:12;;;;;;;9.43;2.87;;;16.00;99.90;;;;;;5016193;28;20430;-44
2023/08/10 01:47:49;;;;;;;11.10;3.70;;;16.00;99.90;;;;;;5015669;28;20438;-44
2023/08/10 01:50:19;;;;;;;8.43;3.23;;;16.00;99.90;;;;;;5015625;28;20527;-44
2023/08/10 01:52:51;;;;;;;6.63;3.50;;;15.90;99.90;;;;;;5014072;28;20432;-44
2023/08/10 01:55:18;;;;;;;7.50;3.17;;;15.90;99.90;;;;;;5014292;28;20579;-44
2023/08/10 01:57:47;;;;;;;4.20;2.73;;;15.90;99.90;;;;;;5013804;28;20853;-46
2023/08/10 02:00:15;;;;;;;6.70;3.63;;;15.80;99.90;;;;;;5014519;28;20542;-45
2023/08/10 02:02:47;;;;;;;4.37;3.00;;;15.80;99.90;;;;;;5015758;28;20965;-44
2023/08/10 02:05:15;;;;;;;5.57;3.40;;;15.70;99.90;;;;;;5015902;28;20421;-44
2023/08/10 02:07:48;;;;;;;4.77;3.10;;;15.70;99.90;;;;;;5016601;28;20456;-43
2023/08/10 02:10:16;;;;;;;4.60;3.00;;;15.70;99.90;;;;;;5013563;28;20778;-44
2023/08/10 02:12:43;;;;;;;4.67;3.37;;;15.60;99.90;;;;;;5013754;28;20486;-44
2023/08/10 02:15:12;;;;;;;5.77;3.27;;;15.50;99.90;;;;;;5013495;28;20472;-44
2023/08/10 02:17:39;;;;;;;6.13;3.50;;;15.50;99.90;;;;;;5013198;28;20468;-43
2023/08/10 02:20:11;;;;;;;6.03;3.17;;;15.50;99.90;;;;;;5013681;28;20547;-44
2023/08/10 02:22:39;;;;;;;5.30;3.00;;;15.40;99.90;;;;;;5013828;28;20458;-45
2023/08/10 02:25:07;;;;;;;6.47;3.13;;;15.40;99.90;;;;;;5014630;28;20411;-45
2023/08/10 02:27:34;;;;;;;4.80;3.20;;;15.30;99.90;;;;;;5014061;28;20427;-44
2023/08/10 02:30:01;;;;;;;5.30;3.30;;;15.30;99.90;;;;;;5014893;28;20893;-43
2023/08/10 02:32:32;;;;;;;5.47;3.40;;;15.20;99.90;;;;;;5013542;28;20447;-44
2023/08/10 02:34:59;;;;;;;4.50;3.07;;;15.20;99.90;;;;;;5013326;28;20558;-44
2023/08/10 02:37:27;;;;;;;5.13;2.93;;;15.20;99.90;;;;;;5012631;28;20469;-45
2023/08/10 02:39:54;;;;;;;8.13;3.30;;;15.20;99.90;;;;;;5012966;28;20447;-44
2023/08/10 02:42:21;;;;;;;4.13;2.50;;;15.20;99.90;;;;;;5013337;28;20881;-43
2023/08/10 02:44:50;;;;;;;5.50;3.30;;;15.20;99.90;;;;;;5013459;28;20809;-44
2023/08/10 02:47:16;;;;;;;5.17;3.10;;;15.10;99.90;;;;;;5012714;28;20751;-44
2023/08/10 02:49:45;;;;;;;10.90;4.00;;;15.20;99.90;;;;;;5014887;28;20518;-43
2023/08/10 02:52:12;;;;;;;5.83;3.60;;;15.10;99.90;;;;;;5013089;28;20799;-44
2023/08/10 02:54:39;;;;;;;5.27;3.20;;;15.10;99.90;;;;;;5012935;28;20483;-45
2023/08/10 02:57:06;;;;;;;3.90;2.77;;;15.10;99.90;;;;;;5012543;28;20495;-45
2023/08/10 02:59:33;;;;;;;4.63;2.80;;;15.00;99.90;;;;;;5012800;28;20478;-44
2023/08/10 03:02:00;;;;;;;5.57;3.27;;;15.00;99.90;;;;;;5013115;28;20444;-44
2023/08/10 03:04:28;;;;;;;3.80;2.43;;;15.00;99.90;;;;;;5012777;28;20448;-44
2023/08/10 03:06:56;;;;;;;5.00;2.83;;;15.00;99.90;;;;;;5012364;28;20986;-44
2023/08/10 03:09:23;;;;;;;9.30;3.13;;;14.90;99.90;;;;;;5013077;28;20825;-44
2023/08/10 03:11:51;;;;;;;8.63;3.50;;;14.90;99.90;;;;;;5015876;28;20495;-43
2023/08/10 03:14:18;;;;;;;4.43;3.20;;;14.90;99.90;;;;;;5018534;28;20500;-44
2023/08/10 03:16:45;;;;;;;5.87;2.87;;;14.90;99.90;;;;;;5016219;28;20431;-45
2023/08/10 03:19:12;;;;;;;8.50;3.07;;;14.90;99.90;;;;;;5018002;28;20493;-44
2023/08/10 03:21:39;;;;;;;5.47;3.07;;;14.90;99.90;;;;;;5017425;28;20531;-43
2023/08/10 03:24:08;;;;;;;6.13;3.03;;;14.90;99.90;;;;;;5019058;28;20475;-46
2023/08/10 03:26:35;;;;;;;5.10;2.40;;;15.00;99.90;;;;;;5017767;28;20444;-45
2023/08/10 03:29:02;;;;;;;6.03;3.30;;;15.00;99.90;;;;;;5019138;28;20518;-43
2023/08/10 03:31:29;;;;;;;7.10;3.13;;;15.00;99.90;;;;;;5019265;28;20411;-45
2023/08/10 03:33:57;;;;;;;5.60;2.97;;;15.00;99.90;;;;;;5016933;28;20603;-43
2023/08/10 03:36:25;;;;;;;6.43;3.20;;;15.00;99.90;;;;;;5017803;28;20511;-44
2023/08/10 03:38:52;;;;;;;7.70;3.03;;;15.00;99.90;;;;;;5015769;28;20487;-44
2023/08/10 03:41:21;;;;;;;4.50;2.77;;;15.00;99.90;;;;;;5015442;28;20505;-44
2023/08/10 03:43:47;;;;;;;7.90;3.00;;;15.00;99.90;;;;;;5014507;28;20472;-44
2023/08/10 03:46:14;;;;;;;5.50;2.67;;;15.00;99.90;;;;;;5014288;28;20867;-45
2023/08/10 03:48:41;;;;;;;5.60;2.90;;;14.90;99.90;;;;;;5012280;28;20528;-44
2023/08/10 03:51:09;;;;;;;6.30;3.50;;;14.90;99.90;;;;;;5012108;28;20460;-45
2023/08/10 03:53:36;;;;;;;9.70;3.40;;;14.90;99.90;;;;;;5012024;28;20604;-46
2023/08/10 03:56:03;;;;;;;4.70;2.90;;;14.90;99.90;;;;;;5011889;28;20508;-45
2023/08/10 03:58:32;;;;;;;7.73;3.37;;;14.90;99.90;;;;;;5011479;28;20797;-45
2023/08/10 04:01:02;;;;;;;6.83;3.30;;;14.90;99.90;;;;;;5013003;28;20444;-43
2023/08/10 04:03:29;;;;;;;12.77;3.87;;;14.90;99.90;;;;;;5011854;28;20428;-44
2023/08/10 04:05:56;;;;;;;9.30;3.53;;;14.80;99.90;;;;;;5011505;28;20626;-45
2023/08/10 04:08:23;;;;;;;10.93;3.77;;;14.80;99.90;;;;;;5012708;28;20475;-45
2023/08/10 04:10:49;;;;;;;6.47;3.47;;;14.80;99.90;;;;;;5012049;28;20423;-43
2023/08/10 04:13:18;;;;;;;12.97;4.27;;;14.80;99.90;;;;;;5011768;28;20933;-44
2023/08/10 04:15:46;;;;;;;5.80;3.80;;;14.80;99.90;;;;;;5011818;28;20572;-45
2023/08/10 04:18:13;;;;;;;7.73;3.03;;;14.80;99.90;;;;;;5011587;28;21014;-45
2023/08/10 04:20:40;;;;;;;10.97;4.43;;;14.90;99.90;;;;;;5012984;28;20523;-45
2023/08/10 04:23:07;;;;;;;9.00;4.13;;;14.90;99.90;;;;;;5011389;28;20502;-45
2023/08/10 04:25:34;;;;;;;7.23;3.63;;;14.90;99.90;;;;;;5013335;28;20475;-44
2023/08/10 04:28:02;;;;;;;12.07;4.17;;;15.00;99.90;;;;;;5010812;28;20563;-44
2023/08/10 04:30:29;;;;;;;6.20;3.20;;;15.00;99.90;;;;;;5012931;28;20432;-45
2023/08/10 04:32:58;;;;;;;9.53;4.10;;;15.10;99.90;;;;;;5014069;28;20436;-44
2023/08/10 04:35:25;;;;;;;13.27;3.63;;;15.20;99.90;;;;;;5012390;28;20572;-45
2023/08/10 04:37:55;;;;;;;8.43;3.37;;;15.20;99.90;;;;;;5012712;28;20859;-45
2023/08/10 04:40:23;;;;;;;6.73;4.03;;;15.30;99.90;;;;;;5013859;28;20436;-44
2023/08/10 04:42:50;;;;;;;8.23;4.70;;;15.40;99.90;;;;;;5013039;28;20483;-44
2023/08/10 04:45:18;;;;;;;7.07;3.53;;;15.40;99.90;;;;;;5014435;28;20885;-45
2023/08/10 04:47:46;;;;;;;7.63;3.30;;;15.40;99.90;;;;;;5013539;28;20518;-44
2023/08/10 04:50:14;;;;;;;8.70;3.57;;;15.50;99.90;;;;;;5012839;28;20935;-44
2023/08/10 04:52:41;;;;;;;10.83;3.53;;;15.60;99.90;;;;;;5014553;28;20436;-46
2023/08/10 04:55:10;;;;;;;6.73;3.40;;;15.60;99.90;;;;;;5013430;28;20528;-45
2023/08/10 04:57:38;;;;;;;9.20;3.20;;;15.70;99.90;;;;;;5014474;28;20423;-44
2023/08/10 05:00:09;;;;;;;8.13;2.87;;;15.70;99.90;;;;;;5015748;28;20419;-45
2023/08/10 05:02:38;;;;;;;6.77;3.30;;;15.80;99.90;;;;;;5015165;28;20432;-42
2023/08/10 05:05:08;;;;;;;13.00;4.47;;;15.80;99.90;;;;;;5014942;28;20425;-44
2023/08/10 05:07:37;;;;;;;10.13;2.93;;;15.90;99.90;;;;;;5013696;28;20453;-45
2023/08/10 05:10:06;;;;;;;10.40;3.17;;;15.90;99.90;;;;;;5014048;28;20440;-45
2023/08/10 05:12:37;;;;;;;11.43;3.13;;;15.90;99.90;;;;;;5016165;28;20954;-44
2023/08/10 05:15:05;;;;;;;6.20;2.70;;;15.90;99.90;;;;;;5013930;28;20479;-46
2023/08/10 05:17:33;;;;;;;8.73;3.93;;;15.90;99.90;;;;;;5013395;28;20467;-45
2023/08/10 05:20:00;;;;;;;7.20;3.50;;;15.90;99.90;;;;;;5013200;28;20452;-44
2023/08/10 05:22:27;;;;;;;10.40;3.70;;;15.90;99.90;;;;;;5018261;28;20444;-44
2023/08/10 05:24:55;;;;;;;8.90;3.43;;;15.90;99.90;;;;;;5015969;28;20480;-45
2023/08/10 05:27:22;;;;;;;14.00;2.87;;;16.00;99.90;;;;;;5012937;28;20808;-43
2023/08/10 05:29:51;;;;;;;9.27;2.50;;;16.00;99.90;;;;;;5014338;28;20440;-44
2023/08/10 05:32:18;;;;;;;6.33;2.73;;;16.10;99.90;;;;;;5013299;28;20460;-44
2023/08/10 05:34:45;;;;;;;6.97;2.50;;;16.10;99.90;;;;;;5011581;28;20446;-44
2023/08/10 05:37:14;;;;;;;5.53;2.30;;;16.20;99.90;;;;;;5012139;28;21013;-45
2023/08/10 05:39:41;;;;;;;9.53;3.80;;;16.30;99.90;;;;;;5011749;28;20898;-43
2023/08/10 05:42:10;;;;;;;6.90;3.00;;;16.40;99.90;;;;;;5012170;28;20425;-44
2023/08/10 05:44:37;;;;;;;7.17;2.47;;;16.50;99.90;;;;;;5012094;28;20517;-46
2023/08/10 05:47:06;;;;;;;8.30;4.07;;;16.60;99.90;;;;;;5011621;28;20428;-43
2023/08/10 05:49:33;;;;;;;12.20;4.07;;;16.70;99.90;;;;;;5011735;28;20445;-44
2023/08/10 05:52:00;;;;;;;9.03;3.03;;;16.80;99.90;;;;;;5010426;28;20534;-44
2023/08/10 05:54:27;;;;;;;10.87;2.70;;;16.90;99.90;;;;;;5011995;28;20835;-44
2023/08/10 05:56:55;;;;;;;7.53;2.40;;;17.10;99.90;;;;;;5009472;28;20493;-45
2023/08/10 05:59:23;;;;;;;8.30;2.60;;;17.20;99.90;;;;;;5012409;28;20445;-45
2023/08/10 06:01:50;;;;;;;6.00;2.73;;;17.30;99.90;;;;;;5010596;28;20469;-44
2023/08/10 06:04:18;;;;;;;9.97;2.50;;;17.30;99.90;;;;;;5012050;28;20485;-45
2023/08/10 06:06:46;;;;;;;7.43;2.70;;;17.40;99.90;;;;;;5011680;28;20450;-44
2023/08/10 06:09:13;;;;;;;5.90;2.30;;;17.40;99.90;;;;;;5011758;28;20483;-44
2023/08/10 06:11:40;;;;;;;5.80;2.80;;;17.40;99.90;;;;;;5011747;28;20756;-45
2023/08/10 06:14:10;;;;;;;9.33;2.33;;;17.40;99.90;;;;;;5013354;28;20430;-45
2023/08/10 06:16:38;;;;;;;6.30;2.03;;;17.40;99.90;;;;;;5015885;28;20486;-47
2023/08/10 06:19:05;;;;;;;9.40;2.60;;;17.30;99.90;;;;;;5015470;28;20497;-45
2023/08/10 06:21:33;;;;;;;15.70;8.70;;;17.30;99.90;;;;;;5016339;28;20438;-44
2023/08/10 06:24:00;;;;;;;7.83;2.83;;;17.40;99.90;;;;;;5016470;28;20434;-44
2023/08/10 06:26:29;;;;;;;10.37;3.20;;;17.40;99.90;;;;;;5016520;28;20526;-46
2023/08/10 06:28:56;;;;;;;12.37;4.73;;;17.50;99.90;;;;;;5016867;28;20494;-44
2023/08/10 06:31:26;;;;;;;38.77;5.60;;;17.60;99.90;;;;;;5020929;28;20810;-45
2023/08/10 06:33:56;;;;;;;10.57;5.57;;;17.70;99.90;;;;;;5015489;28;20448;-44
2023/08/10 06:36:24;;;;;;;31.60;4.47;;;17.80;99.90;;;;;;5016414;28;20516;-44
2023/08/10 06:38:50;;;;;;;9.43;4.60;;;17.80;99.90;;;;;;5027683;22;20502;-51
2023/08/10 06:41:18;;;;;;;24.73;4.77;;;17.90;99.90;;;;;;4993278;28;20487;-51
2023/08/10 06:43:45;;;;;;;14.13;3.40;;;17.90;99.90;;;;;;4994721;28;20527;-50
2023/08/10 06:46:12;;;;;;;13.37;5.33;;;18.00;99.90;;;;;;4993444;28;20456;-51
2023/08/10 06:48:39;;;;;;;12.40;3.37;;;18.10;99.90;;;;;;4994286;28;20826;-51
2023/08/10 06:51:07;;;;;;;6.77;2.60;;;18.20;99.90;;;;;;4994556;28;20479;-51
2023/08/10 06:53:34;;;;;;;12.00;4.10;;;18.20;99.80;;;;;;4994497;28;20433;-50
2023/08/10 06:56:01;;;;;;;11.30;3.83;;;18.20;99.50;;;;;;4993115;28;20603;-50
2023/08/10 06:58:28;;;;;;;9.20;3.20;;;18.40;99.80;;;;;;4992361;28;20563;-50
2023/08/10 07:00:57;;;;;;;7.50;2.67;;;18.40;99.20;;;;;;4992764;28;20928;-49
2023/08/10 07:03:24;;;;;;;6.10;2.80;;;18.40;98.40;;;;;;4993108;28;20483;-50
2023/08/10 07:05:51;;;;;;;7.20;2.20;;;18.30;98.20;;;;;;4994615;28;20942;-50
2023/08/10 07:08:19;;;;;;;10.53;2.30;;;18.30;98.40;;;;;;4993843;28;20464;-50
2023/08/10 07:10:46;;;;;;;15.70;5.00;;;18.20;98.70;;;;;;4993029;28;20536;-49
2023/08/10 07:13:13;;;;;;;9.57;3.00;;;18.30;98.70;;;;;;4992894;28;20527;-51
2023/08/10 07:15:40;;;;;;;10.17;3.67;;;18.30;98.80;;;;;;4994198;28;20432;-51
2023/08/10 07:18:07;;;;;;;11.60;3.73;;;17.80;98.70;;;;;;4992097;28;20464;-51
2023/08/10 07:20:35;;;;;;;35.90;5.63;;;18.30;99.10;;;;;;4994005;28;20440;-50
2023/08/10 07:23:02;;;;;;;9.30;2.83;;;18.40;99.30;;;;;;4993754;28;20521;-52
2023/08/10 07:25:32;;;;;;;32.00;4.93;;;18.60;99.50;;;;;;4993813;28;20448;-50
2023/08/10 07:27:59;;;;;;;9.03;3.00;;;18.20;99.20;;;;;;4992779;28;20462;-51
2023/08/10 07:30:25;;;;;;;7.60;2.73;;;18.50;99.20;;;;;;4992387;28;20448;-51
2023/08/10 07:32:52;;;;;;;6.80;2.70;;;18.80;98.60;;;;;;4993890;28;20444;-50
2023/08/10 07:35:19;;;;;;;12.30;4.83;;;18.90;98.10;;;;;;4993804;28;20441;-51
2023/08/10 07:37:48;;;;;;;6.90;3.07;;;18.90;97.80;;;;;;4993089;28;20496;-51
2023/08/10 07:40:15;;;;;;;18.40;4.20;;;19.00;97.40;;;;;;4993500;28;20440;-51
2023/08/10 07:42:43;;;;;;;4.77;2.30;;;19.00;97.00;;;;;;4993331;28;20437;-51
2023/08/10 07:45:10;;;;;;;14.73;4.53;;;19.00;96.50;;;;;;4993399;28;20528;-51
2023/08/10 07:47:37;;;;;;;16.07;2.90;;;19.00;96.70;;;;;;4993143;28;20507;-51
2023/08/10 07:50:05;;;;;;;7.63;2.60;;;18.80;96.60;;;;;;4993651;28;20465;-51
2023/08/10 07:52:32;;;;;;;15.30;2.70;;;19.00;96.70;;;;;;4993500;28;20437;-50
2023/08/10 07:54:58;;;;;;;6.80;3.07;;;19.10;96.30;;;;;;4993369;28;20472;-51
2023/08/10 07:57:25;;;;;;;13.90;3.00;;;19.20;96.30;;;;;;4992733;28;20482;-52
2023/08/10 07:59:53;;;;;;;8.40;2.60;;;19.60;96.20;;;;;;4993648;28;20436;-52
2023/08/10 08:02:20;;;;;;;9.73;4.00;;;19.00;94.90;;;;;;4993216;28;20444;-49
2023/08/10 08:04:46;;;;;;;10.50;2.73;;;19.70;94.60;;;;;;4993396;28;20810;-50
2023/08/10 08:07:13;;;;;;;13.40;2.73;;;19.60;94.70;;;;;;4992790;28;20447;-49
2023/08/10 08:09:39;;;;;;;53.70;6.60;;;19.80;94.20;;;;;;4993190;28;20438;-50
2023/08/10 08:12:06;;;;;;;10.80;2.23;;;19.50;93.60;;;;;;4993152;28;20434;-50
2023/08/10 08:14:33;;;;;;;9.90;2.23;;;19.60;93.30;;;;;;4992910;28;20422;-49
2023/08/10 08:17:01;;;;;;;10.30;3.20;;;19.70;93.10;;;;;;4992295;28;20453;-49
2023/08/10 08:19:28;;;;;;;10.43;2.40;;;19.70;93.00;;;;;;4992854;28;20460;-50
2023/08/10 08:21:54;;;;;;;13.40;2.73;;;19.80;92.80;;;;;;4992982;28;20453;-50
2023/08/10 08:24:21;;;;;;;8.50;2.40;;;19.80;92.50;;;;;;4992668;28;20438;-50
2023/08/10 08:26:47;;;;;;;20.67;3.73;;;19.80;92.60;;;;;;4992123;28;20430;-50
2023/08/10 08:29:14;;;;;;;7.27;2.13;;;19.80;92.40;;;;;;4992660;28;20455;-50
2023/08/10 08:31:41;;;;;;;7.27;2.43;;;19.80;92.40;;;;;;4992608;28;20475;-50
2023/08/10 08:34:09;;;;;;;7.10;3.00;;;19.80;92.30;;;;;;4992819;28;20853;-51
2023/08/10 08:36:35;;;;;;;3.77;2.20;;;19.80;92.20;;;;;;4992141;28;20493;-51
2023/08/10 08:39:02;;;;;;;5.43;1.90;;;20.10;92.10;;;;;;4992363;28;20825;-50
2023/08/10 08:41:37;;;;;;;6.37;1.70;;;20.00;92.00;;;;;;4992257;28;20450;-49
2023/08/10 08:44:05;;;;;;;7.47;2.30;;;20.10;92.10;;;;;;4992068;28;20514;-50
2023/08/10 08:46:33;;;;;;;4.47;1.97;;;20.20;91.90;;;;;;4992135;28;20417;-50
2023/08/10 08:49:01;;;;;;;9.40;3.60;;;20.20;91.80;;;;;;4992230;28;20833;-50
2023/08/10 08:51:29;;;;;;;6.47;1.70;;;20.20;91.00;;;;;;4992317;28;20451;-50
2023/08/10 08:53:57;;;;;;;7.90;1.87;;;20.10;90.80;;;;;;4992560;28;20454;-50
2023/08/10 08:56:24;;;;;;;7.53;2.30;;;20.10;91.30;;;;;;4990832;28;20479;-50
2023/08/10 08:58:51;;;;;;;6.20;2.15;;;20.30;91.30;;;;;;4987772;28;20800;-50
2023/08/10 09:01:18;;;;;;;7.40;1.80;;;20.50;91.30;;;;;;5004366;28;20278;-49
2023/08/10 09:03:46;;;;;;;7.53;2.07;;;20.70;91.10;;;;;;5009943;28;20512;-49
2023/08/10 09:06:12;;;;;;;3.10;1.40;;;20.80;91.20;;;;;;4990517;28;20535;-48
2023/08/10 09:08:41;;;;;;;7.23;2.03;;;20.90;91.00;;;;;;4991595;28;20551;-50
2023/08/10 09:11:08;;;;;;;4.93;1.93;;;20.90;90.90;;;;;;4991717;28;20870;-50
2023/08/10 09:13:35;;;;;;;12.82;3.35;;;20.80;90.00;;;;;;4991484;28;20432;-50
2023/08/10 09:16:06;;;;;;;21.07;6.60;;;21.00;88.80;;;;;;4991751;28;20211;-49
2023/08/10 09:18:33;;;;;;;6.45;2.92;;;20.80;87.90;;;;;;4982163;28;20539;-49
2023/08/10 09:21:12;;;;;;;9.52;3.50;;;21.00;86.10;;;;;;4971536;28;20440;-50
2023/08/10 09:23:40;;;;;;;3.83;2.07;;;21.10;85.70;;;;;;4989797;28;20573;-50
2023/08/10 09:26:09;;;;;;;7.90;2.40;;;20.90;86.80;;;;;;5011464;28;20536;-50
2023/08/10 09:28:37;;;;;;;9.70;2.10;;;20.90;87.70;;;;;;5010880;28;20465;-49
2023/08/10 09:31:03;;;;;;;5.17;2.03;;;20.80;87.60;;;;;;5011328;28;20433;-49
2023/08/10 09:33:32;;;;;;;4.30;1.80;;;20.80;87.70;;;;;;5011423;28;20937;-49
2023/08/10 09:36:03;;;;;;;6.60;2.20;;;20.40;87.90;;;;;;4997100;28;20814;-50
2023/08/10 09:38:29;;;;;;;7.77;1.97;;;20.30;88.50;;;;;;4990691;28;20916;-50
2023/08/10 09:41:09;;;;;;;4.33;1.83;;;19.90;88.70;;;;;;4991517;28;20441;-50
2023/08/10 09:43:37;;;;;;;7.50;2.27;;;20.20;89.20;;;;;;4991567;28;20903;-50
2023/08/10 09:46:05;;;;;;;5.70;2.13;;;20.20;89.70;;;;;;4991405;28;20435;-50
2023/08/10 09:48:35;;;;;;;17.00;3.70;;;20.20;89.80;;;;;;4990866;28;21028;-51
2023/08/10 09:51:04;;;;;;;7.97;3.17;;;20.30;89.80;;;;;;4993865;28;20465;-50
2023/08/10 09:53:32;;;;;;;5.60;2.40;;;20.50;89.80;;;;;;5012669;28;20564;-50
2023/08/10 09:55:59;;;;;;;9.83;2.93;;;20.70;90.00;;;;;;5014995;28;20431;-49
2023/08/10 09:58:27;;;;;;;8.80;3.00;;;20.70;88.60;;;;;;5014277;28;20532;-50
2023/08/10 10:00:54;;;;;;;7.60;1.63;;;20.90;88.50;;;;;;5014909;28;20444;-49
2023/08/10 10:03:21;;;;;;;4.97;1.77;;;21.10;88.60;;;;;;5014804;28;20435;-49
2023/08/10 10:05:50;;;;;;;6.97;2.10;;;21.10;86.60;;;;;;5014838;28;20447;-49
2023/08/10 10:08:18;;;;;;;11.73;3.50;;;21.20;86.10;;;;;;5014324;28;20454;-50
2023/08/10 10:10:45;;;;;;;30.43;6.37;;;21.00;85.50;;;;;;5014813;28;20519;-50
2023/08/10 10:13:14;;;;;;;6.10;2.40;;;20.90;86.30;;;;;;4995977;28;20506;-50
2023/08/10 10:15:43;;;;;;;14.60;5.03;;;20.90;86.70;;;;;;4994816;28;20511;-49
2023/08/10 10:18:10;;;;;;;7.93;2.03;;;20.70;86.60;;;;;;4994551;28;20846;-49
2023/08/10 10:20:39;;;;;;;11.13;2.73;;;21.20;87.20;;;;;;4994994;28;20415;-50
2023/08/10 10:23:13;;;;;;;7.03;2.20;;;21.30;86.80;;;;;;4994931;28;20446;-50
2023/08/10 10:25:40;;;;;;;14.63;2.50;;;21.30;85.60;;;;;;4994759;28;20827;-49
2023/08/10 10:28:14;;;;;;;6.40;2.67;;;21.60;85.50;;;;;;4994537;28;20461;-49
2023/08/10 10:30:55;;;;;;;10.03;2.43;;;21.60;84.70;;;;;;4994959;28;20861;-49
2023/08/10 10:33:23;;;;;;;15.27;3.67;;;21.60;84.50;;;;;;4994753;28;20471;-49
2023/08/10 10:36:11;;;;;;;5.00;2.10;;;21.60;84.60;;;;;;4994616;28;20447;-48
2023/08/10 10:38:41;;;;;;;7.67;2.37;;;21.50;84.40;;;;;;4994270;28;20497;-50
2023/08/10 10:41:16;;;;;;;6.45;2.20;;;21.50;84.60;;;;;;4994402;28;20436;-50
2023/08/10 10:43:44;;;;;;;7.33;3.10;;;21.50;84.10;;;;;;4994631;28;20225;-51
2023/08/10 10:46:36;;;;;;;4.07;1.93;;;21.40;84.30;;;;;;4994172;28;20484;-50
2023/08/10 10:49:06;;;;;;;5.37;2.27;;;21.60;85.00;;;;;;4994377;28;20820;-50
2023/08/10 10:51:33;;;;;;;13.90;3.80;;;21.70;85.40;;;;;;4994591;28;20445;-49
2023/08/10 10:54:00;;;;;;;29.17;5.57;;;21.70;85.10;;;;;;4994651;28;20437;-50
2023/08/10 10:56:26;;;;;;;7.33;2.53;;;21.90;85.00;;;;;;4994165;28;20450;-49
2023/08/10 10:58:53;;;;;;;5.80;2.30;;;21.90;84.90;;;;;;5009651;28;20466;-50
2023/08/10 11:01:22;;;;;;;10.90;3.20;;;21.80;84.40;;;;;;5013424;28;20505;-50
2023/08/10 11:03:52;;;;;;;10.80;3.03;;;21.90;84.50;;;;;;5014010;28;20967;-50
2023/08/10 11:06:20;;;;;;;6.00;1.90;;;22.20;84.80;;;;;;5014027;28;20916;-50
2023/08/10 11:08:50;;;;;;;4.93;2.73;;;22.00;83.40;;;;;;5012055;28;21022;-49
2023/08/10 11:11:17;;;;;;;11.70;2.60;;;22.00;83.60;;;;;;5010524;28;20526;-49
2023/08/10 11:13:44;;;;;;;4.07;2.00;;;21.90;82.80;;;;;;4994620;28;20442;-49
2023/08/10 11:16:12;;;;;;;7.30;1.80;;;21.90;82.30;;;;;;4994048;28;20441;-49
2023/08/10 11:18:41;;;;;;;9.83;3.07;;;21.90;82.70;;;;;;5003733;28;20546;-49
2023/08/10 11:21:09;;;;;;;5.77;2.17;;;21.60;83.20;;;;;;5013589;28;20448;-50
2023/08/10 11:23:36;;;;;;;5.63;1.90;;;21.60;82.90;;;;;;5013499;28;20932;-49
2023/08/10 11:26:03;;;;;;;5.47;2.77;;;21.60;82.60;;;;;;5009090;28;20452;-50
2023/08/10 11:28:29;;;;;;;6.93;1.87;;;21.60;82.50;;;;;;5003729;28;20458;-50
2023/08/10 11:31:02;;;;;;;4.83;2.10;;;21.50;82.20;;;;;;4993746;28;20506;-51
2023/08/10 11:33:29;;;;;;;23.57;4.33;;;21.40;82.50;;;;;;5010432;28;20425;-51
2023/08/10 11:35:58;;;;;;;4.23;1.93;;;21.50;83.50;;;;;;5013359;28;20814;-50
2023/08/10 11:38:26;;;;;;;4.30;1.90;;;21.50;83.40;;;;;;5012481;28;20551;-50
2023/08/10 11:40:57;;;;;;;6.10;2.57;;;21.60;83.20;;;;;;5012872;28;20502;-50
2023/08/10 11:43:25;;;;;;;4.63;2.27;;;21.60;83.20;;;;;;5013323;28;20464;-50
2023/08/10 11:45:54;;;;;;;5.88;2.47;;;21.70;82.90;;;;;;4993184;28;20503;-52
2023/08/10 11:48:22;;;;;;;8.07;2.40;;;22.20;81.70;;;;;;4992592;28;20258;-51
2023/08/10 11:50:58;;;;;;;5.30;2.43;;;22.20;82.20;;;;;;4993212;28;20449;-50
2023/08/10 11:53:36;;;;;;;6.83;2.80;;;22.10;81.50;;;;;;4992951;28;20456;-51
2023/08/10 11:56:05;;;;;;;5.27;2.33;;;22.10;81.80;;;;;;4992794;28;20430;-49
2023/08/10 11:58:33;;;;;;;6.63;2.10;;;22.10;81.70;;;;;;4986147;28;20464;-50
2023/08/10 12:01:03;;;;;;;10.03;3.07;;;22.60;80.10;;;;;;4992709;28;20258;-51
2023/08/10 12:03:30;;;;;;;7.83;3.10;;;22.40;79.80;;;;;;4992738;28;20499;-49
2023/08/10 12:05:57;;;;;;;3.23;1.60;;;22.20;80.30;;;;;;4992736;28;20972;-52
2023/08/10 12:08:28;;;;;;;4.93;2.43;;;22.10;80.30;;;;;;4992191;28;20463;-50
2023/08/10 12:11:02;;;;;;;3.73;1.77;;;22.10;81.60;;;;;;4993129;28;20453;-51
2023/08/10 12:13:30;;;;;;;9.93;2.40;;;22.00;80.80;;;;;;4992715;28;20448;-50
2023/08/10 12:15:57;;;;;;;8.33;2.63;;;21.90;81.20;;;;;;4991340;28;20468;-51
2023/08/10 12:18:25;;;;;;;14.77;2.67;;;21.90;81.40;;;;;;4990551;28;20560;-51
2023/08/10 12:20:53;;;;;;;7.32;2.70;;;21.90;81.90;;;;;;4972991;28;20816;-51
2023/08/10 12:23:21;;;;;;;3.73;2.33;;;21.70;80.80;;;;;;4973206;28;20289;-48
2023/08/10 12:25:50;;;;;;;9.23;2.10;;;21.90;81.10;;;;;;4973267;28;20733;-50
2023/08/10 12:28:18;;;;;;;5.17;2.40;;;22.00;80.90;;;;;;4972310;28;20465;-49
2023/08/10 12:30:45;;;;;;;5.00;2.37;;;22.00;80.90;;;;;;4973160;28;20443;-51
2023/08/10 12:33:12;;;;;;;20.33;18.77;;;22.00;81.20;;;;;;4991014;28;20511;-50
2023/08/10 12:35:39;;;;;;;5.63;2.30;;;21.90;80.00;;;;;;4992221;28;20453;-50
2023/08/10 12:38:07;;;;;;;5.77;1.63;;;21.70;80.40;;;;;;4991912;28;20493;-50
2023/08/10 12:40:34;;;;;;;4.13;1.80;;;21.50;80.20;;;;;;4992018;28;20539;-50
2023/08/10 12:43:02;;;;;;;12.90;2.50;;;21.40;80.70;;;;;;4992840;28;20444;-50
2023/08/10 12:45:29;;;;;;;4.03;1.90;;;21.40;81.30;;;;;;5011013;28;20972;-50
2023/08/10 12:47:56;;;;;;;4.77;1.90;;;21.40;81.40;;;;;;5009839;28;21033;-51
2023/08/10 12:50:24;;;;;;;8.43;2.60;;;21.30;81.30;;;;;;5011607;28;20446;-50